Time;durP1;ratioP1;P1;durP2;ratioP2;P2;SDS_P1;SDS_P2;PMS_P1;PMS_P2;Temp;Humidity;BMP_temperature;BMP_pressure;BME280_temperature;BME280_humidity;BME280_pressure;Samples;Min_cycle;Max_cycle;Signal;HPM_P1;HPM_P2
2022/08/22 07:34:41;;;;;;;2.03;1.40;;;;;;;;;;6353639;22;20079;-82
2022/08/22 07:37:12;;;;;;;1.48;1.13;;;;;;;;;;6311130;22;20068;-77
2022/08/22 09:23:19;;;;;;;1.50;1.35;;;;;;;;;;6335841;22;20018;-78
2022/08/22 09:26:03;;;;;;;4.18;2.13;;;;;;;;;;6339539;22;20089;-78
2022/08/22 09:29:15;;;;;;;1.70;1.50;;;;;;;;;;6339921;22;20010;-76
2022/08/22 09:31:48;;;;;;;2.35;1.60;;;;;;;;;;6308809;22;20318;-75
2022/08/22 09:34:48;;;;;;;1.58;1.48;;;;;;;;;;6308955;22;20003;-81
2022/08/22 09:37:26;;;;;;;1.40;1.30;;;;;;;;;;6308831;22;20027;-74
2022/08/22 09:40:12;;;;;;;2.03;1.60;;;;;;;;;;6308180;22;20436;-77
2022/08/22 09:43:04;;;;;;;2.10;1.50;;;;;;;;;;6308935;22;20048;-78
2022/08/22 09:45:44;;;;;;;1.58;1.48;;;;;;;;;;6309034;22;20064;-77
2022/08/22 09:48:47;;;;;;;1.60;1.40;;;;;;;;;;6308726;22;19999;-76
2022/08/22 09:51:40;;;;;;;1.20;1.10;;;;;;;;;;6308489;22;20097;-75
2022/08/22 09:54:14;;;;;;;1.70;1.60;;;;;;;;;;6308848;22;20007;-74
2022/08/22 09:56:48;;;;;;;3.33;2.22;;;;;;;;;;6308949;22;19999;-72
2022/08/22 09:59:41;;;;;;;2.05;1.77;;;;;;;;;;6308993;22;20078;-76
2022/08/22 10:02:33;;;;;;;1.30;1.20;;;;;;;;;;6309937;22;20004;-77
2022/08/22 10:05:43;;;;;;;1.85;1.30;;;;;;;;;;6252162;22;20007;-80
2022/08/22 10:08:15;;;;;;;4.63;1.60;;;;;;;;;;6184403;23;20443;-80
2022/08/22 10:11:06;;;;;;;3.05;1.65;;;;;;;;;;6184312;23;20005;-75
2022/08/22 10:13:54;;;;;;;2.88;1.42;;;;;;;;;;6184298;23;20116;-80
2022/08/22 10:16:53;;;;;;;1.58;1.30;;;;;;;;;;6159609;23;20067;-78
2022/08/22 10:19:30;;;;;;;1.58;1.25;;;;;;;;;;6159499;23;20012;-75
2022/08/22 10:22:35;;;;;;;1.55;1.45;;;;;;;;;;6159978;23;20364;-79
2022/08/22 10:25:24;;;;;;;1.17;1.05;;;;;;;;;;6142328;23;20144;-76
2022/08/22 10:28:02;;;;;;;2.00;1.30;;;;;;;;;;6184015;23;20151;-80
2022/08/22 10:30:39;;;;;;;1.20;1.10;;;;;;;;;;6183790;23;20009;-83
2022/08/22 10:33:14;;;;;;;1.20;1.02;;;;;;;;;;6183788;23;20008;-81
2022/08/22 10:35:46;;;;;;;1.38;1.00;;;;;;;;;;6183603;23;20032;-80
2022/08/22 10:38:21;;;;;;;1.60;1.23;;;;;;;;;;6183682;23;20017;-82
2022/08/22 10:40:58;;;;;;;1.40;1.30;;;;;;;;;;6158688;23;20013;-85
2022/08/22 10:43:48;;;;;;;3.67;1.40;;;;;;;;;;6307696;22;20003;-83
2022/08/22 10:46:37;;;;;;;4.45;1.50;;;;;;;;;;6309786;22;19995;-87
2022/08/22 10:49:12;;;;;;;1.42;1.17;;;;;;;;;;6307505;22;20003;-79
2022/08/22 10:51:38;;;;;;;2.88;1.30;;;;;;;;;;6308140;22;20025;-87
2022/08/22 10:54:28;;;;;;;1.30;1.20;;;;;;;;;;6308084;22;20003;-80
2022/08/22 10:56:57;;;;;;;1.10;1.00;;;;;;;;;;6308793;22;20364;-89
2022/08/22 10:59:38;;;;;;;1.75;1.23;;;;;;;;;;6308187;22;20003;-88
2022/08/22 11:02:18;;;;;;;3.42;1.45;;;;;;;;;;6308563;22;20000;-89
2022/08/22 11:05:09;;;;;;;2.67;1.70;;;;;;;;;;6308831;22;20029;-88
2022/08/22 11:07:55;;;;;;;1.33;1.02;;;;;;;;;;6308428;22;20318;-88
2022/08/22 11:10:38;;;;;;;1.52;1.42;;;;;;;;;;6307980;22;20051;-89
2022/08/22 11:13:28;;;;;;;2.75;1.50;;;;;;;;;;6308100;22;20003;-85
2022/08/22 11:16:18;;;;;;;1.35;1.27;;;;;;;;;;6308343;22;20018;-80
2022/08/22 11:19:04;;;;;;;1.35;1.00;;;;;;;;;;6307962;22;19999;-84
2022/08/22 11:21:51;;;;;;;1.50;1.40;;;;;;;;;;6307610;22;20522;-87
2022/08/22 11:25:00;;;;;;;3.05;1.50;;;;;;;;;;6333747;22;20101;-86
2022/08/22 11:27:58;;;;;;;2.40;1.20;;;;;;;;;;6266714;22;20360;-85
2022/08/22 11:30:30;;;;;;;;;;;;;;;;;;6339350;22;20003;-85
2022/08/22 11:33:13;;;;;;;2.35;1.80;;;;;;;;;;6339310;22;19902;-88
2022/08/22 11:35:44;;;;;;;1.52;1.40;;;;;;;;;;6345161;22;19999;-92
2022/08/22 11:38:36;;;;;;;1.50;1.40;;;;;;;;;;6341798;22;20409;-92
2022/08/22 11:41:51;;;;;;;1.35;1.10;;;;;;;;;;6185139;23;20040;-93
2022/08/22 11:44:44;;;;;;;2.97;1.20;;;;;;;;;;6164759;23;20019;-86
2022/08/22 16:26:47;;;;;;;1.63;1.30;;;;;;;;;;6337459;22;20390;-90
2022/08/22 16:29:44;;;;;;;3.13;1.60;;;;;;;;;;6372527;22;20010;-84
2022/08/22 16:32:32;;;;;;;3.85;1.50;;;;;;;;;;6372916;22;19995;-88
2022/08/22 16:34:58;;;;;;;1.67;1.40;;;;;;;;;;6372453;22;20054;-87
2022/08/22 16:37:43;;;;;;;1.40;1.30;;;;;;;;;;6372656;22;19998;-79
2022/08/22 16:40:18;;;;;;;1.40;1.30;;;;;;;;;;6372529;22;19994;-77
2022/08/22 16:42:49;;;;;;;2.92;1.60;;;;;;;;;;6373628;22;20002;-83
2022/08/22 16:45:17;;;;;;;2.15;1.45;;;;;;;;;;6344514;22;20010;-85
2022/08/22 16:47:55;;;;;;;1.88;1.67;;;;;;;;;;6372351;22;20017;-74
2022/08/22 16:50:21;;;;;;;1.33;1.23;;;;;;;;;;6372358;22;20025;-75
2022/08/22 16:53:01;;;;;;;1.90;1.65;;;;;;;;;;6371822;22;20409;-74
2022/08/22 16:55:30;;;;;;;3.47;1.95;;;;;;;;;;6371108;22;20025;-84
2022/08/22 16:58:00;;;;;;;5.20;2.10;;;;;;;;;;6371652;22;20002;-77
2022/08/22 17:00:29;;;;;;;2.65;2.38;;;;;;;;;;6371701;22;20421;-73
2022/08/22 17:03:35;;;;;;;3.70;3.30;;;;;;;;;;6371944;22;20320;-76
2022/08/22 17:06:03;;;;;;;1.70;1.60;;;;;;;;;;6371626;22;20002;-79
2022/08/22 17:09:07;;;;;;;2.37;1.67;;;;;;;;;;6371611;22;20002;-80
2022/08/22 17:11:44;;;;;;;2.13;1.55;;;;;;;;;;6371515;22;20010;-84
2022/08/22 17:14:37;;;;;;;1.73;1.38;;;;;;;;;;6371384;22;20075;-85
2022/08/22 17:17:12;;;;;;;4.50;3.03;;;;;;;;;;6374032;22;20009;-77
2022/08/22 17:19:43;;;;;;;2.90;1.90;;;;;;;;;;6373491;22;19998;-82
2022/08/22 17:22:39;;;;;;;2.08;1.52;;;;;;;;;;6371047;22;20433;-76
2022/08/22 17:25:08;;;;;;;2.00;1.52;;;;;;;;;;6371261;22;20034;-80
2022/08/22 17:27:40;;;;;;;2.50;1.52;;;;;;;;;;6371055;22;20010;-80
2022/08/22 17:30:14;;;;;;;1.63;1.52;;;;;;;;;;6371102;22;20303;-83
2022/08/22 17:33:09;;;;;;;1.58;1.48;;;;;;;;;;6371167;22;20026;-81
2022/08/22 17:36:11;;;;;;;2.50;1.70;;;;;;;;;;6371617;22;20077;-83
2022/08/22 17:38:42;;;;;;;1.55;1.45;;;;;;;;;;6371192;22;20033;-77
2022/08/22 17:41:24;;;;;;;1.70;1.60;;;;;;;;;;6371299;22;20002;-79
2022/08/22 17:44:21;;;;;;;1.55;1.45;;;;;;;;;;6371043;22;20002;-79
2022/08/22 17:46:56;;;;;;;1.50;1.40;;;;;;;;;;6371237;22;20051;-79
2022/08/22 17:49:45;;;;;;;1.33;1.23;;;;;;;;;;6371504;22;19999;-80
2022/08/22 17:52:32;;;;;;;1.88;1.60;;;;;;;;;;6371772;22;20055;-82
2022/08/22 17:55:23;;;;;;;3.17;2.88;;;;;;;;;;6371382;22;19998;-80
2022/08/22 17:58:09;;;;;;;2.00;1.80;;;;;;;;;;6371511;22;20331;-79
2022/08/22 18:00:40;;;;;;;2.20;2.00;;;;;;;;;;6371406;22;19994;-81
2022/08/22 18:03:33;;;;;;;3.15;1.80;;;;;;;;;;6371284;22;20006;-82
2022/08/22 18:06:05;;;;;;;3.05;1.55;;;;;;;;;;6371543;22;20080;-80
2022/08/22 18:08:32;;;;;;;2.70;1.73;;;;;;;;;;6343567;22;20052;-80
2022/08/22 18:11:02;;;;;;;2.40;1.38;;;;;;;;;;6371899;22;20058;-81
2022/08/22 18:13:42;;;;;;;2.47;1.50;;;;;;;;;;6371457;22;20063;-79
2022/08/22 18:16:23;;;;;;;1.85;1.10;;;;;;;;;;6371057;22;20006;-80
2022/08/22 18:18:53;;;;;;;2.20;1.70;;;;;;;;;;6371463;22;20319;-81
2022/08/22 18:21:32;;;;;;;4.05;2.17;;;;;;;;;;6371068;22;20002;-78
2022/08/22 18:24:11;;;;;;;2.15;1.27;;;;;;;;;;6371144;22;20030;-81
2022/08/22 18:27:17;;;;;;;2.80;1.70;;;;;;;;;;6371039;22;20051;-82
2022/08/22 18:29:49;;;;;;;2.38;1.90;;;;;;;;;;6371382;22;20006;-78
2022/08/22 18:32:24;;;;;;;2.83;2.08;;;;;;;;;;6371066;22;19998;-84
2022/08/22 18:35:14;;;;;;;2.63;2.40;;;;;;;;;;6370892;22;20029;-78
2022/08/22 18:37:54;;;;;;;1.92;1.70;;;;;;;;;;6370978;22;20073;-80
2022/08/22 18:40:38;;;;;;;3.17;1.70;;;;;;;;;;6371293;22;20070;-78
2022/08/22 18:43:35;;;;;;;2.78;1.77;;;;;;;;;;6370798;22;20002;-77
2022/08/22 18:46:23;;;;;;;3.22;2.15;;;;;;;;;;6337444;22;20002;-77
2022/08/22 18:48:48;;;;;;;1.52;1.40;;;;;;;;;;6370533;22;20007;-81
2022/08/22 18:51:22;;;;;;;2.47;1.60;;;;;;;;;;6370894;22;20070;-79
2022/08/22 18:53:51;;;;;;;2.67;1.40;;;;;;;;;;6343056;22;20090;-84
2022/08/22 18:56:35;;;;;;;2.90;1.88;;;;;;;;;;6370921;22;20329;-78
2022/08/22 18:59:32;;;;;;;1.70;1.60;;;;;;;;;;6369797;22;19999;-84
2022/08/22 19:02:26;;;;;;;1.38;1.27;;;;;;;;;;6370776;22;20077;-82
2022/08/22 19:05:18;;;;;;;1.60;1.40;;;;;;;;;;6271225;22;20007;-78
2022/08/22 19:07:54;;;;;;;2.75;1.38;;;;;;;;;;6370971;22;20003;-84
2022/08/22 19:10:33;;;;;;;1.63;1.35;;;;;;;;;;6370748;22;20120;-83
2022/08/22 19:13:15;;;;;;;5.20;1.55;;;;;;;;;;6370908;22;19999;-78
2022/08/22 19:15:46;;;;;;;2.05;1.38;;;;;;;;;;6371104;22;20007;-83
2022/08/22 19:18:21;;;;;;;2.85;1.88;;;;;;;;;;6370858;22;19995;-80
2022/08/22 19:23:58;;;;;;;1.65;1.40;;;;;;;;;;6370609;22;20049;-81
2022/08/22 19:26:29;;;;;;;1.55;1.45;;;;;;;;;;6370647;22;20342;-83
2022/08/22 19:29:23;;;;;;;1.77;1.52;;;;;;;;;;6370646;22;20022;-83
2022/08/22 19:31:52;;;;;;;4.07;2.35;;;;;;;;;;6348332;22;20090;-84
2022/08/22 19:34:34;;;;;;;1.90;1.40;;;;;;;;;;6370831;22;20333;-80
2022/08/22 19:37:12;;;;;;;1.92;1.42;;;;;;;;;;6370548;22;19999;-79
2022/08/22 19:39:40;;;;;;;1.45;1.35;;;;;;;;;;6370752;22;20069;-82
2022/08/22 19:42:18;;;;;;;2.35;1.83;;;;;;;;;;6370762;22;20022;-83
2022/08/22 19:45:07;;;;;;;1.45;1.35;;;;;;;;;;6370077;22;20009;-78
2022/08/22 19:47:37;;;;;;;2.92;1.33;;;;;;;;;;6371029;22;20344;-81
2022/08/22 19:50:34;;;;;;;1.73;1.63;;;;;;;;;;6370613;22;20030;-83
2022/08/22 19:53:23;;;;;;;2.13;1.35;;;;;;;;;;6338345;22;20098;-84
2022/08/22 19:56:20;;;;;;;1.88;1.52;;;;;;;;;;6370362;22;20002;-84
2022/08/22 19:59:05;;;;;;;2.45;1.92;;;;;;;;;;6297626;22;20033;-82
2022/08/22 20:01:43;;;;;;;2.28;1.55;;;;;;;;;;6372687;22;20005;-79
2022/08/22 20:04:20;;;;;;;2.30;1.65;;;;;;;;;;6372648;22;20024;-81
2022/08/22 20:07:14;;;;;;;1.80;1.48;;;;;;;;;;6372114;22;20440;-82
2022/08/22 20:09:57;;;;;;;3.28;2.40;;;;;;;;;;6372979;22;20026;-80
2022/08/22 20:12:38;;;;;;;2.72;2.13;;;;;;;;;;6372843;22;20069;-81
2022/08/22 20:15:20;;;;;;;3.22;1.95;;;;;;;;;;6372812;22;20002;-78
2022/08/22 20:17:47;;;;;;;2.78;1.70;;;;;;;;;;6372451;22;20002;-80
2022/08/22 20:20:18;;;;;;;2.47;2.08;;;;;;;;;;6372254;22;20077;-77
2022/08/22 20:22:57;;;;;;;1.88;1.65;;;;;;;;;;6372399;22;20002;-78
2022/08/22 20:25:49;;;;;;;2.28;1.45;;;;;;;;;;6372731;22;20006;-82
2022/08/22 20:28:33;;;;;;;1.35;1.25;;;;;;;;;;6375765;22;20006;-82
2022/08/22 20:31:01;;;;;;;2.17;1.60;;;;;;;;;;6372685;22;19998;-85
2022/08/22 20:33:40;;;;;;;1.67;1.43;;;;;;;;;;6372696;22;19998;-79
2022/08/22 20:36:11;;;;;;;2.00;1.60;;;;;;;;;;6373051;22;20089;-79
2022/08/22 20:38:47;;;;;;;2.88;1.40;;;;;;;;;;6372614;22;20006;-82
2022/08/22 20:41:24;;;;;;;2.70;1.40;;;;;;;;;;6372098;22;19990;-81
2022/08/22 20:44:04;;;;;;;1.65;1.55;;;;;;;;;;6372124;22;19998;-84
2022/08/22 20:46:45;;;;;;;2.28;1.60;;;;;;;;;;6371930;22;20007;-83
2022/08/22 20:49:30;;;;;;;1.90;1.40;;;;;;;;;;6371796;22;20005;-81
2022/08/22 20:52:08;;;;;;;2.80;1.40;;;;;;;;;;6372149;22;20029;-80
2022/08/22 20:54:37;;;;;;;2.53;1.48;;;;;;;;;;6371908;22;20006;-81
2022/08/22 20:57:15;;;;;;;2.67;1.60;;;;;;;;;;6371889;22;20429;-81
2022/08/22 20:59:52;;;;;;;1.93;1.23;;;;;;;;;;6371944;22;20002;-81
2022/08/22 21:02:24;;;;;;;1.95;1.63;;;;;;;;;;6371867;22;20427;-78
2022/08/22 21:05:02;;;;;;;2.00;1.55;;;;;;;;;;6371857;22;20101;-80
2022/08/22 21:07:33;;;;;;;2.78;1.90;;;;;;;;;;6371831;22;19998;-79
2022/08/22 21:13:07;;;;;;;2.63;1.65;;;;;;;;;;6371809;22;20024;-77
2022/08/22 21:15:40;;;;;;;2.13;1.48;;;;;;;;;;6371752;22;20030;-78
2022/08/22 21:18:07;;;;;;;3.38;2.00;;;;;;;;;;6371652;22;19998;-80
2022/08/22 21:20:35;;;;;;;2.65;1.80;;;;;;;;;;6371721;22;20007;-78
2022/08/22 21:23:04;;;;;;;1.88;1.60;;;;;;;;;;6371546;22;19997;-80
2022/08/22 21:25:31;;;;;;;2.42;1.73;;;;;;;;;;6371025;22;20032;-76
2022/08/22 21:27:59;;;;;;;1.98;1.55;;;;;;;;;;6371489;22;20022;-76
2022/08/22 21:30:26;;;;;;;2.90;1.90;;;;;;;;;;6372098;22;19998;-82
2022/08/22 21:32:53;;;;;;;2.63;2.20;;;;;;;;;;6371705;22;20002;-78
2022/08/22 21:35:25;;;;;;;2.00;1.80;;;;;;;;;;6371217;22;20096;-82
2022/08/22 21:37:51;;;;;;;3.58;1.90;;;;;;;;;;6371781;22;20446;-81
2022/08/22 21:40:22;;;;;;;2.40;2.20;;;;;;;;;;6372024;22;20003;-75
2022/08/22 21:43:09;;;;;;;2.83;1.88;;;;;;;;;;6371454;22;20021;-78
2022/08/22 21:45:38;;;;;;;3.08;1.90;;;;;;;;;;6371475;22;20020;-77
2022/08/22 21:48:30;;;;;;;2.33;1.87;;;;;;;;;;6344339;22;20006;-82
2022/08/22 21:50:55;;;;;;;1.77;1.67;;;;;;;;;;6371802;22;20223;-83
2022/08/22 21:53:27;;;;;;;1.50;1.40;;;;;;;;;;6371337;22;20478;-82
2022/08/22 21:56:13;;;;;;;3.72;1.77;;;;;;;;;;6371368;22;20006;-81
2022/08/22 21:58:40;;;;;;;3.10;2.20;;;;;;;;;;6371719;22;20002;-82
2022/08/22 22:01:30;;;;;;;2.83;2.10;;;;;;;;;;6371419;22;20353;-82
2022/08/22 22:03:57;;;;;;;1.92;1.73;;;;;;;;;;6371339;22;19998;-78
2022/08/22 22:06:23;;;;;;;2.22;2.03;;;;;;;;;;6372639;22;20425;-86
